Time;durP1;ratioP1;P1;durP2;ratioP2;P2;SDS_P1;SDS_P2;PMS_P1;PMS_P2;Temp;Humidity;BMP_temperature;BMP_pressure;BME280_temperature;BME280_humidity;BME280_pressure;Samples;Min_cycle;Max_cycle;Signal;HPM_P1;HPM_P2
2023/08/26 00:02:25;;;;;;;19.35;16.30;;;;;;;20.65;100.00;94941.59;4988211;28;20022;-92
2023/08/26 00:04:51;;;;;;;17.73;15.98;;;;;;;20.71;100.00;94917.78;4988074;28;20030;-92
2023/08/26 00:07:17;;;;;;;18.60;16.73;;;;;;;20.59;100.00;94927.56;4986405;28;20489;-94
2023/08/26 00:09:42;;;;;;;19.00;17.17;;;;;;;20.52;100.00;94937.41;4987192;28;20061;-89
2023/08/26 00:12:07;;;;;;;20.48;16.85;;;;;;;20.47;100.00;94946.00;4986009;28;20524;-89
2023/08/26 00:14:33;;;;;;;17.52;15.75;;;;;;;20.58;100.00;94940.97;4987538;28;20034;-89
2023/08/26 00:16:58;;;;;;;22.92;17.73;;;;;;;20.69;100.00;94917.22;4989603;28;20034;-95
2023/08/26 00:19:24;;;;;;;19.08;17.30;;;;;;;20.79;100.00;94911.34;4999321;28;20026;-96
2023/08/26 00:21:50;;;;;;;19.98;16.98;;;;;;;20.45;100.00;94948.06;4989036;28;20416;-95
2023/08/26 00:24:16;;;;;;;18.60;16.80;;;;;;;20.50;100.00;94958.72;4987028;28;20570;-95
2023/08/26 00:26:42;;;;;;;19.75;16.65;;;;;;;20.47;100.00;94961.81;4988688;28;20045;-94
2023/08/26 00:29:07;;;;;;;17.98;16.35;;;;;;;20.39;100.00;94969.22;4957198;28;20034;-94
2023/08/26 00:31:32;;;;;;;19.02;17.33;;;;;;;20.25;100.00;95000.25;4989262;28;20034;-94
2023/08/26 00:34:02;;;;;;;19.83;17.85;;;;;;;20.24;100.00;95003.88;5002173;28;20472;-94
2023/08/26 00:36:27;;;;;;;22.70;18.05;;;;;;;20.29;100.00;95006.66;4984991;28;20034;-96
2023/08/26 00:38:53;;;;;;;19.15;17.45;;;;;;;20.31;100.00;95006.44;5023053;28;20451;-95
2023/08/26 00:41:18;;;;;;;18.30;16.70;;;;;;;20.47;100.00;94998.66;5001597;28;20034;-96
2023/08/26 00:43:43;;;;;;;17.75;16.10;;;;;;;20.30;100.00;94997.75;5009192;28;20037;-96
2023/08/26 00:46:09;;;;;;;19.70;18.10;;;;;;;20.20;100.00;95026.41;4998003;28;20038;-93
2023/08/26 00:48:35;;;;;;;19.13;17.65;;;;;;;20.26;100.00;95017.63;4968076;28;20038;-94
2023/08/26 00:51:00;;;;;;;19.98;18.05;;;;;;;20.43;100.00;94989.59;4990481;28;20069;-96
2023/08/26 00:53:25;;;;;;;18.85;17.25;;;;;;;20.31;100.00;94999.34;5007504;28;20034;-96
2023/08/26 00:55:51;;;;;;;19.10;17.63;;;;;;;20.30;100.00;94996.94;4994378;28;20037;-94
2023/08/26 00:58:17;;;;;;;19.90;18.20;;;;;;;20.24;100.00;95006.53;4984565;28;20061;-96
2023/08/26 01:00:43;;;;;;;18.20;16.77;;;;;;;20.23;100.00;95004.91;4993568;28;20033;-96
2023/08/26 01:03:11;;;;;;;19.67;17.95;;;;;;;20.23;100.00;95002.28;5005521;28;20133;-96
2023/08/26 01:05:37;;;;;;;20.13;18.07;;;;;;;20.22;100.00;94998.06;5009166;28;20054;-96
2023/08/26 01:08:06;;;;;;;20.10;18.02;;;;;;;20.16;100.00;95027.13;5000513;28;20061;-93
2023/08/26 01:10:36;;;;;;;18.25;16.85;;;;;;;20.13;100.00;95032.84;4985382;28;20029;-94
2023/08/26 01:13:04;;;;;;;20.35;18.75;;;;;;;19.95;100.00;95042.41;5023290;28;20454;-91
2023/08/26 01:15:31;;;;;;;20.77;18.90;;;;;;;19.98;100.00;95033.25;4989607;28;20103;-95
2023/08/26 01:17:59;;;;;;;19.83;18.15;;;;;;;19.99;100.00;95035.66;5003832;28;20114;-95
2023/08/26 01:20:24;;;;;;;20.40;18.60;;;;;;;20.05;100.00;95015.53;4989868;28;20036;-95
2023/08/26 01:22:51;;;;;;;25.88;19.17;;;;;;;20.07;100.00;95004.81;4998998;28;20038;-93
2023/08/26 01:25:17;;;;;;;21.70;18.73;;;;;;;20.07;100.00;95010.06;4995535;28;20034;-93
2023/08/26 01:27:43;;;;;;;19.50;18.00;;;;;;;19.91;100.00;95019.41;5008298;28;20044;-93
2023/08/26 01:30:09;;;;;;;21.92;19.83;;;;;;;19.93;100.00;95018.16;5008751;28;20040;-93
2023/08/26 01:32:42;;;;;;;20.83;18.58;;;;;;;19.90;100.00;95017.81;4992445;28;20025;-94
2023/08/26 01:35:14;;;;;;;21.15;19.52;;;;;;;19.82;100.00;95023.41;5013946;28;20063;-94
2023/08/26 01:37:41;;;;;;;20.83;19.00;;;;;;;19.89;100.00;95026.72;5007926;23;20058;-93
2023/08/26 01:40:09;;;;;;;21.40;19.42;;;;;;;19.97;100.00;95021.16;4987035;28;20038;-92
2023/08/26 01:42:36;;;;;;;21.38;19.20;;;;;;;20.00;100.00;95004.91;4969003;28;20042;-95
2023/08/26 01:45:02;;;;;;;20.40;18.80;;;;;;;19.78;100.00;95025.66;4965777;28;20392;-91
2023/08/26 01:47:28;;;;;;;22.65;20.65;;;;;;;19.54;100.00;95054.75;5004462;28;20033;-95
2023/08/26 01:49:53;;;;;;;21.17;19.27;;;;;;;19.47;100.00;95065.34;4983362;28;20393;-92
2023/08/26 01:52:19;;;;;;;24.52;22.30;;;;;;;19.35;100.00;95074.97;5003572;28;20030;-91
2023/08/26 01:54:49;;;;;;;23.10;20.80;;;;;;;19.46;100.00;95074.25;4985956;28;20034;-90
2023/08/26 01:57:14;;;;;;;20.92;19.08;;;;;;;19.57;100.00;95056.94;4984836;28;20029;-89
2023/08/26 01:59:40;;;;;;;22.33;20.63;;;;;;;19.56;100.00;95047.44;4991019;28;20034;-93
2023/08/26 02:02:05;;;;;;;22.00;19.92;;;;;;;19.72;100.00;95036.28;4994285;28;20148;-95
2023/08/26 02:04:30;;;;;;;22.45;20.42;;;;;;;19.74;100.00;95021.09;5004094;28;20404;-92
2023/08/26 02:06:56;;;;;;;21.58;19.83;;;;;;;19.75;100.00;95004.28;4995283;28;20026;-94
2023/08/26 02:09:21;;;;;;;21.77;19.98;;;;;;;19.86;100.00;95001.69;5033790;23;20210;-96
2023/08/26 02:11:47;;;;;;;22.15;20.10;;;;;;;19.87;100.00;95003.28;5025431;28;20044;-96
2023/08/26 02:14:12;;;;;;;22.30;20.40;;;;;;;19.83;100.00;95006.59;5040084;28;20043;-94
2023/08/26 02:16:38;;;;;;;23.27;21.38;;;;;;;19.87;100.00;95010.38;5038136;28;20092;-96
2023/08/26 02:19:03;;;;;;;21.15;19.20;;;;;;;19.69;100.00;95044.63;5043793;28;20055;-95
2023/08/26 02:21:29;;;;;;;21.27;19.48;;;;;;;19.62;100.00;95036.81;5069247;28;20047;-95
2023/08/26 02:23:55;;;;;;;21.50;19.55;;;;;;;19.35;100.00;95057.41;5050742;28;20048;-96
2023/08/26 02:26:20;;;;;;;20.25;18.75;;;;;;;19.42;100.00;95067.84;5050918;28;20029;-95
2023/08/26 02:28:46;;;;;;;23.10;21.08;;;;;;;19.32;100.00;95063.09;5044728;28;20359;-94
2023/08/26 02:31:11;;;;;;;22.67;20.67;;;;;;;19.44;100.00;95066.59;5067686;28;20033;-95
2023/08/26 02:33:37;;;;;;;22.52;20.38;;;;;;;19.33;100.00;95051.53;5059321;28;20447;-95
2023/08/26 02:36:03;;;;;;;22.67;20.70;;;;;;;19.49;100.00;95041.50;5026316;28;20032;-95
2023/08/26 02:38:31;;;;;;;22.05;20.27;;;;;;;19.40;100.00;95044.41;5054654;28;20043;-95
2023/08/26 02:40:57;;;;;;;21.77;19.85;;;;;;;19.39;100.00;95047.25;5067180;28;20033;-95
2023/08/26 02:43:22;;;;;;;22.42;20.52;;;;;;;19.45;100.00;95036.69;5046549;28;20159;-96
2023/08/26 02:45:54;;;;;;;22.25;20.05;;;;;;;19.31;100.00;95043.09;5053099;28;20390;-94
2023/08/26 02:48:21;;;;;;;22.20;20.42;;;;;;;19.45;100.00;95038.50;5055913;28;20035;-95
2023/08/26 02:50:46;;;;;;;22.67;20.83;;;;;;;19.46;100.00;95027.75;5033319;28;20120;-95
2023/08/26 02:53:12;;;;;;;22.35;20.08;;;;;;;19.47;100.00;95023.31;5011783;28;20057;-91
2023/08/26 02:55:38;;;;;;;23.33;21.25;;;;;;;19.07;100.00;94982.81;5248691;22;20042;-80
2023/08/26 02:58:03;;;;;;;23.20;21.15;;;;;;;18.94;100.00;95023.19;4973716;28;20086;-96
2023/08/26 03:00:29;;;;;;;23.55;21.35;;;;;;;19.06;100.00;95041.59;5409651;22;20011;-96
2023/08/26 03:02:54;;;;;;;22.55;20.80;;;;;;;18.90;100.00;95011.50;4973818;28;20105;-95
2023/08/26 03:05:20;;;;;;;22.75;20.88;;;;;;;18.67;100.00;95033.16;4970418;28;20055;-95
2023/08/26 03:07:45;;;;;;;22.80;20.52;;;;;;;18.84;100.00;95051.75;4983139;28;20089;-94
2023/08/26 03:10:10;;;;;;;22.38;20.63;;;;;;;18.71;100.00;95029.09;4970197;28;20027;-94
2023/08/26 03:12:36;;;;;;;23.00;20.88;;;;;;;18.80;100.00;95067.13;4970204;28;20396;-94
2023/08/26 03:15:02;;;;;;;21.88;19.92;;;;;;;18.79;100.00;95044.53;4972225;28;20042;-95
2023/08/26 03:17:27;;;;;;;21.77;19.95;;;;;;;18.81;100.00;95024.13;4969069;28;20026;-95
2023/08/26 03:19:53;;;;;;;22.08;20.00;;;;;;;18.85;100.00;95032.34;4969919;28;20510;-94
2023/08/26 03:22:18;;;;;;;22.23;20.45;;;;;;;18.99;100.00;95054.81;4970468;28;20035;-95
2023/08/26 03:24:44;;;;;;;22.60;20.23;;;;;;;19.07;100.00;95045.84;4968908;28;20082;-96
2023/08/26 03:27:14;;;;;;;21.48;19.58;;;;;;;18.77;100.00;95017.72;4957229;28;20023;-96
2023/08/26 03:29:40;;;;;;;22.10;20.30;;;;;;;18.54;100.00;95037.75;4969200;28;20031;-96
2023/08/26 03:32:06;;;;;;;21.27;19.23;;;;;;;18.74;100.00;95088.19;4969988;28;20058;-95
2023/08/26 03:34:32;;;;;;;22.27;20.40;;;;;;;18.74;100.00;95096.88;4951270;28;20114;-93
2023/08/26 03:36:57;;;;;;;21.13;19.33;;;;;;;18.43;100.00;95047.88;4970223;28;20503;-93
2023/08/26 03:39:23;;;;;;;24.02;21.85;;;;;;;18.34;100.00;95043.94;4965738;28;20010;-95
2023/08/26 03:41:48;;;;;;;22.27;20.48;;;;;;;18.78;100.00;95100.66;5066504;22;20117;-95
2023/08/26 03:44:13;;;;;;;22.17;20.38;;;;;;;18.66;100.00;95114.72;4997719;28;20080;-93
2023/08/26 03:46:39;;;;;;;22.50;20.55;;;;;;;18.65;100.00;95107.88;4990869;28;20057;-93
2023/08/26 03:49:04;;;;;;;22.25;20.50;;;;;;;18.65;100.00;95115.75;5009839;28;20046;-93
2023/08/26 03:51:30;;;;;;;21.73;20.08;;;;;;;18.65;100.00;95118.38;4996076;28;20217;-94
2023/08/26 03:53:55;;;;;;;22.55;20.45;;;;;;;18.62;100.00;95116.97;4991763;28;20036;-92
2023/08/26 03:56:20;;;;;;;22.50;20.17;;;;;;;18.63;100.00;95109.91;5010794;28;20022;-95
2023/08/26 03:58:46;;;;;;;21.35;19.42;;;;;;;18.64;100.00;95103.63;4986452;28;20041;-94
2023/08/26 04:01:11;;;;;;;22.27;20.08;;;;;;;18.63;100.00;95107.28;4983847;28;20081;-94
2023/08/26 04:03:37;;;;;;;21.45;19.63;;;;;;;18.60;100.00;95118.19;5005507;28;20112;-93
2023/08/26 04:06:04;;;;;;;21.23;19.13;;;;;;;18.70;100.00;95111.44;5001616;28;20030;-93
2023/08/26 04:08:30;;;;;;;22.30;20.40;;;;;;;18.63;100.00;95120.38;5019854;28;20045;-94
2023/08/26 04:10:57;;;;;;;21.05;19.08;;;;;;;18.86;100.00;95110.06;5003569;28;20026;-95
2023/08/26 04:13:27;;;;;;;45.05;20.27;;;;;;;18.89;100.00;95083.38;4997638;28;20551;-93
2023/08/26 04:15:55;;;;;;;22.13;20.02;;;;;;;18.95;100.00;95078.06;4992671;28;20065;-95
2023/08/26 04:18:22;;;;;;;20.65;18.77;;;;;;;18.99;100.00;95069.75;5000033;28;20026;-95
2023/08/26 04:20:47;;;;;;;21.55;19.85;;;;;;;19.25;100.00;95051.88;4992990;28;20034;-96
2023/08/26 04:23:13;;;;;;;20.20;18.50;;;;;;;19.29;100.00;95029.38;5010052;28;20026;-96
2023/08/26 04:25:39;;;;;;;19.30;17.90;;;;;;;19.43;100.00;95016.88;5009632;28;20013;-96
2023/08/26 04:28:05;;;;;;;20.75;18.90;;;;;;;19.37;100.00;95012.50;4997846;28;20069;-96
2023/08/26 04:30:30;;;;;;;19.83;17.95;;;;;;;19.64;100.00;94997.19;5012896;28;20048;-96
2023/08/26 04:32:56;;;;;;;18.05;16.58;;;;;;;19.80;100.00;94984.19;4995702;28;20476;-96
2023/08/26 04:35:21;;;;;;;16.75;15.15;;;;;;;20.87;100.00;94903.88;4993891;28;20111;-96
2023/08/26 04:37:46;;;;;;;15.25;14.00;;;;;;;22.43;100.00;94821.13;4974306;28;20499;-91
2023/08/26 04:40:15;;;;;;;13.85;12.52;;;;;;;23.17;100.00;94794.91;4989609;28;20056;-94
2023/08/26 04:42:40;;;;;;;12.60;11.50;;;;;;;23.80;100.00;94787.94;4970272;28;20088;-93
2023/08/26 04:45:06;;;;;;;13.45;12.27;;;;;;;24.42;100.00;94778.19;5000578;28;20038;-92
2023/08/26 04:47:33;;;;;;;12.30;11.40;;;;;;;24.51;100.00;94779.25;4988600;28;20042;-90
2023/08/26 04:49:59;;;;;;;11.23;10.32;;;;;;;25.49;100.00;94782.56;4988758;28;20125;-95
2023/08/26 04:52:25;;;;;;;10.85;9.93;;;;;;;25.21;100.00;94780.41;5007279;28;20112;-91
2023/08/26 04:54:50;;;;;;;10.18;9.45;;;;;;;25.40;100.00;94778.81;4989117;28;20029;-92
2023/08/26 04:57:17;;;;;;;9.95;9.25;;;;;;;26.41;100.00;94773.28;4986031;28;20022;-90
2023/08/26 04:59:42;;;;;;;10.13;9.27;;;;;;;26.88;100.00;94767.41;4966191;28;20404;-93
2023/08/26 05:02:08;;;;;;;9.50;8.80;;;;;;;27.50;100.00;94768.56;5000397;28;20017;-95
2023/08/26 05:04:34;;;;;;;9.30;8.65;;;;;;;27.58;100.00;94766.06;5015149;28;20036;-92
2023/08/26 05:06:59;;;;;;;9.93;9.05;;;;;;;27.77;100.00;94780.25;4985091;28;20026;-91
2023/08/26 05:09:25;;;;;;;8.20;7.70;;;;;;;28.19;100.00;94765.44;4984480;28;20467;-94
2023/08/26 05:11:50;;;;;;;15.48;8.93;;;;;;;28.97;99.68;94776.41;4978371;28;20045;-95
2023/08/26 05:14:17;;;;;;;9.50;8.70;;;;;;;28.79;100.00;94774.53;4978008;28;20026;-94
2023/08/26 05:16:43;;;;;;;9.15;8.32;;;;;;;29.33;93.07;94775.88;4984975;28;20040;-89
2023/08/26 05:19:08;;;;;;;8.43;7.63;;;;;;;29.91;87.25;94776.22;4984096;28;20033;-92
2023/08/26 05:21:33;;;;;;;8.25;7.45;;;;;;;30.04;89.39;94756.72;4968713;28;20026;-94
2023/08/26 05:23:59;;;;;;;8.00;7.35;;;;;;;30.61;85.09;94769.47;5002697;28;20073;-94
2023/08/26 05:26:24;;;;;;;7.63;6.90;;;;;;;30.78;82.57;94771.50;4984649;28;20125;-94
2023/08/26 05:28:50;;;;;;;7.97;6.87;;;;;;;31.19;81.27;94772.19;4965561;28;20022;-94
2023/08/26 05:31:15;;;;;;;7.20;6.60;;;;;;;31.07;81.81;94771.94;5007955;28;20333;-92
2023/08/26 05:33:41;;;;;;;6.78;6.18;;;;;;;31.31;76.19;94767.06;4985773;28;20026;-89
2023/08/26 05:36:06;;;;;;;8.50;6.50;;;;;;;31.74;74.28;94766.56;5001240;28;20034;-94
2023/08/26 05:38:32;;;;;;;6.60;6.00;;;;;;;32.83;68.94;94771.03;5000920;28;20048;-93
2023/08/26 05:40:57;;;;;;;6.15;5.75;;;;;;;33.26;70.86;94765.69;4983054;28;20042;-93
2023/08/26 05:43:23;;;;;;;7.18;5.75;;;;;;;33.81;62.62;94763.06;4984576;28;20021;-93
2023/08/26 05:45:48;;;;;;;6.20;5.27;;;;;;;34.20;58.98;94772.72;4984331;28;20500;-95
2023/08/26 05:48:13;;;;;;;5.93;5.47;;;;;;;35.13;54.88;94769.84;4967897;28;20224;-94
2023/08/26 05:50:39;;;;;;;5.27;4.97;;;;;;;35.41;55.54;94763.56;4964840;28;20137;-94
2023/08/26 05:53:04;;;;;;;5.93;5.40;;;;;;;35.79;52.16;94765.25;4993319;28;20495;-96
2023/08/26 05:55:30;;;;;;;5.50;5.00;;;;;;;36.73;46.79;94771.41;4985625;28;20065;-93
2023/08/26 05:57:56;;;;;;;4.87;4.40;;;;;;;36.92;44.33;94763.47;5000336;28;20064;-90
2023/08/26 06:00:22;;;;;;;4.63;4.07;;;;;;;36.95;42.74;94766.28;5000324;28;20033;-94
2023/08/26 06:02:48;;;;;;;7.33;4.40;;;;;;;37.06;42.30;94768.50;4986690;28;20569;-96
2023/08/26 06:05:13;;;;;;;4.72;4.38;;;;;;;37.46;41.39;94767.41;5003772;28;20038;-94
2023/08/26 06:07:39;;;;;;;5.87;4.53;;;;;;;35.83;43.10;94769.66;4978155;28;20479;-91
2023/08/26 06:10:06;;;;;;;5.00;4.65;;;;;;;36.75;43.48;94769.13;4967613;28;20049;-92
2023/08/26 06:12:31;;;;;;;6.05;4.38;;;;;;;38.56;38.61;94767.50;4984335;28;20040;-93
2023/08/26 06:14:57;;;;;;;5.35;4.78;;;;;;;37.93;39.21;94764.78;5000082;28;20457;-89
2023/08/26 06:17:22;;;;;;;5.57;4.63;;;;;;;37.31;39.61;94773.50;4967684;28;20041;-91
2023/08/26 06:19:48;;;;;;;5.70;5.20;;;;;;;37.77;38.85;94774.78;4966318;28;20060;-92
2023/08/26 06:22:14;;;;;;;5.60;5.00;;;;;;;37.02;39.42;94770.34;4964751;28;20515;-96
2023/08/26 06:24:39;;;;;;;8.02;5.07;;;;;;;35.32;47.09;94770.13;4978692;28;20030;-91
2023/08/26 06:27:06;;;;;;;6.50;5.90;;;;;;;32.33;52.73;94771.38;4983838;28;20509;-92
2023/08/26 06:29:31;;;;;;;7.07;6.13;;;;;;;32.98;54.97;94769.75;5001464;28;20029;-89
2023/08/26 06:31:57;;;;;;;7.63;4.85;;;;;;;33.26;51.07;94771.84;4999948;28;20029;-85
2023/08/26 06:34:22;;;;;;;8.50;4.82;;;;;;;32.88;52.16;94768.97;4983028;28;20096;-93
2023/08/26 06:36:47;;;;;;;6.18;5.25;;;;;;;32.13;56.65;94776.53;5000805;28;20061;-91
2023/08/26 06:39:14;;;;;;;5.30;4.50;;;;;;;31.82;58.28;94773.88;4984360;28;20462;-94
2023/08/26 06:41:40;;;;;;;5.43;4.38;;;;;;;33.57;51.76;94771.63;4985697;28;20046;-93
2023/08/26 06:44:05;;;;;;;4.70;4.20;;;;;;;35.58;46.01;94776.06;5004091;28;20045;-89
2023/08/26 06:46:31;;;;;;;4.20;3.50;;;;;;;36.58;41.39;94769.38;5005516;28;20068;-88
2023/08/26 06:48:58;;;;;;;4.27;3.93;;;;;;;37.75;39.46;94768.13;4988709;28;20022;-91
2023/08/26 06:51:24;;;;;;;4.65;3.90;;;;;;;38.80;38.62;94766.50;4998860;28;20117;-95
2023/08/26 06:53:49;;;;;;;4.03;3.43;;;;;;;38.79;37.19;94778.47;5018692;28;20025;-91
2023/08/26 06:56:15;;;;;;;5.97;3.73;;;;;;;39.35;37.22;94774.28;4990367;28;20101;-94
2023/08/26 06:58:40;;;;;;;12.65;4.18;;;;;;;40.12;36.83;94776.13;4997505;28;20093;-96
2023/08/26 07:01:05;;;;;;;;;;;;;;;40.38;36.74;94776.16;4982747;28;20035;-96
2023/08/26 07:03:31;;;;;;;4.00;3.70;;;;;;;40.74;36.56;94751.09;5039847;22;19929;-95
2023/08/26 07:05:56;;;;;;;;;;;;;;;41.01;35.53;94768.97;5022189;28;20061;-91
2023/08/26 07:08:22;;;;;;;;;;;;;;;40.40;36.18;94773.84;5017394;22;20006;-96
2023/08/26 07:10:47;;;;;;;4.00;3.57;;;;;;;41.24;35.51;94740.88;4999928;28;19914;-93
2023/08/26 07:13:13;;;;;;;;;;;;;;;41.42;35.04;94771.84;5088717;22;20532;-96
2023/08/26 07:15:38;;;;;;;4.07;3.70;;;;;;;41.35;34.98;94777.19;4980811;28;19914;-95
2023/08/26 07:18:04;;;;;;;;;;;;;;;40.74;35.24;94782.94;4996236;28;20034;-96
2023/08/26 07:20:29;;;;;;;4.53;4.00;;;;;;;40.16;35.68;94783.19;4981746;28;19945;-86
2023/08/26 07:25:24;;;;;;;4.28;3.75;;;;;;;40.27;36.81;94775.97;4996976;28;20034;-91
2023/08/26 07:27:50;;;;;;;6.07;4.18;;;;;;;40.41;36.25;94773.50;5179999;22;20053;-95
2023/08/26 07:30:15;;;;;;;5.85;4.43;;;;;;;39.46;37.96;94774.50;4996893;28;20325;-91
2023/08/26 07:35:17;;;;;;;5.95;5.50;;;;;;;35.24;53.67;94768.28;5055418;22;20061;-96
2023/08/26 07:37:42;;;;;;;5.93;5.15;;;;;;;34.11;53.95;94772.00;5000798;28;20038;-94
2023/08/26 07:40:13;;;;;;;6.57;6.07;;;;;;;31.82;59.27;94768.50;5010383;28;20056;-94
2023/08/26 07:42:38;;;;;;;6.28;5.65;;;;;;;33.98;55.84;94772.94;5027319;28;20029;-96
2023/08/26 07:45:04;;;;;;;8.10;5.70;;;;;;;34.09;55.11;94766.13;5018030;28;20499;-94
2023/08/26 07:47:29;;;;;;;6.28;5.68;;;;;;;34.53;53.29;94764.81;5010745;28;20136;-96
2023/08/26 07:49:55;;;;;;;6.57;5.47;;;;;;;34.16;55.92;94758.38;5009619;28;20041;-94
2023/08/26 07:52:20;;;;;;;6.65;6.03;;;;;;;34.25;55.77;94759.13;5009909;28;20030;-96
2023/08/26 07:54:46;;;;;;;6.78;5.50;;;;;;;33.12;58.53;94749.72;5007942;28;20044;-96
2023/08/26 07:57:12;;;;;;;5.85;5.25;;;;;;;33.31;55.55;94755.56;5006100;28;20032;-90
2023/08/26 07:59:38;;;;;;;7.07;5.45;;;;;;;33.92;56.94;94753.53;4990160;28;20081;-95
2023/08/26 08:02:03;;;;;;;6.15;5.55;;;;;;;33.84;53.65;94747.06;5001652;28;20121;-95
2023/08/26 08:04:29;;;;;;;6.00;5.60;;;;;;;33.73;54.69;94750.44;5015874;28;20057;-94
2023/08/26 08:06:54;;;;;;;6.50;6.00;;;;;;;33.55;59.48;94744.31;5005069;28;20033;-94
2023/08/26 08:09:19;;;;;;;7.88;6.63;;;;;;;32.62;60.11;94748.59;5004990;28;20097;-84
2023/08/26 08:11:45;;;;;;;6.63;6.18;;;;;;;33.28;59.09;94744.66;4995441;28;20118;-87
2023/08/26 08:14:12;;;;;;;7.25;6.53;;;;;;;33.66;58.33;94750.94;4999201;28;20080;-88
2023/08/26 08:16:37;;;;;;;6.15;5.72;;;;;;;33.36;57.48;94736.56;5005661;28;20589;-89
2023/08/26 08:19:03;;;;;;;6.25;5.63;;;;;;;34.51;58.06;94738.22;5006845;28;20030;-87
2023/08/26 08:21:29;;;;;;;6.15;5.65;;;;;;;33.24;60.22;94735.66;5001503;28;20015;-88
2023/08/26 08:23:54;;;;;;;7.15;5.45;;;;;;;32.63;60.50;94732.16;5002375;28;20144;-86
2023/08/26 08:26:20;;;;;;;7.07;6.25;;;;;;;32.46;59.17;94729.44;4998797;28;20022;-88
2023/08/26 08:28:45;;;;;;;8.32;6.35;;;;;;;32.91;62.19;94731.88;4993307;28;20061;-85
2023/08/26 08:31:10;;;;;;;7.25;6.57;;;;;;;34.05;59.19;94727.53;4993383;28;20490;-86
2023/08/26 08:33:36;;;;;;;6.65;5.95;;;;;;;33.52;55.19;94731.50;4999911;28;20062;-88
2023/08/26 08:36:03;;;;;;;6.45;6.05;;;;;;;33.99;57.40;94728.81;5002570;28;20040;-87
2023/08/26 08:38:29;;;;;;;9.10;6.65;;;;;;;33.83;57.83;94724.00;4995182;28;20140;-86
2023/08/26 08:40:54;;;;;;;7.55;7.05;;;;;;;32.20;58.94;94726.72;4994431;28;20112;-88
2023/08/26 08:43:21;;;;;;;7.65;6.95;;;;;;;34.00;57.97;94716.97;4975541;28;20048;-83
2023/08/26 08:45:48;;;;;;;7.00;6.45;;;;;;;34.20;54.76;94713.53;5000644;28;20034;-89
2023/08/26 08:48:13;;;;;;;7.38;6.68;;;;;;;34.24;55.65;94709.88;4981679;28;20803;-88
2023/08/26 08:50:39;;;;;;;7.22;6.68;;;;;;;33.64;58.38;94717.41;4984181;28;20026;-86
2023/08/26 08:53:05;;;;;;;7.60;6.10;;;;;;;32.62;57.64;94717.19;4997820;28;20030;-89
2023/08/26 08:55:32;;;;;;;7.30;6.60;;;;;;;33.60;55.85;94719.97;4978376;28;20037;-86
2023/08/26 08:57:59;;;;;;;7.80;6.90;;;;;;;34.24;55.67;94720.66;4983711;28;20396;-87
2023/08/26 09:00:25;;;;;;;7.18;6.55;;;;;;;34.75;54.31;94716.84;4979782;28;20087;-87
2023/08/26 09:02:51;;;;;;;7.65;6.72;;;;;;;34.69;53.91;94717.38;4983525;28;20021;-85
2023/08/26 09:05:17;;;;;;;11.45;7.70;;;;;;;34.80;54.75;94713.97;4998362;28;20346;-88
2023/08/26 09:07:43;;;;;;;7.65;6.88;;;;;;;35.27;52.19;94711.03;4997384;28;20032;-86
2023/08/26 09:10:11;;;;;;;7.90;7.18;;;;;;;34.52;51.15;94710.19;5001102;28;20108;-86
2023/08/26 09:12:36;;;;;;;;;;;;;;;34.90;52.06;94704.72;5001078;28;20091;-87
2023/08/26 09:15:03;;;;;;;7.37;6.77;;;;;;;34.84;50.02;94701.41;5003474;28;19913;-93
2023/08/26 09:17:28;;;;;;;7.57;6.88;;;;;;;33.66;51.81;94704.44;5004237;28;20484;-86
2023/08/26 09:19:56;;;;;;;7.55;6.85;;;;;;;34.46;51.49;94698.03;5003775;28;20029;-87
2023/08/26 09:22:26;;;;;;;7.37;6.87;;;;;;;33.48;53.10;94703.69;4986525;28;20032;-86
2023/08/26 09:25:02;;;;;;;8.07;6.90;;;;;;;33.40;52.52;94699.91;5005337;28;20076;-91
2023/08/26 09:27:28;;;;;;;8.07;7.20;;;;;;;33.28;52.63;94691.72;5005079;28;20113;-88
2023/08/26 09:29:54;;;;;;;7.03;6.63;;;;;;;34.45;50.86;94699.16;5002702;28;20552;-87
2023/08/26 09:32:36;;;;;;;7.43;6.85;;;;;;;33.39;52.31;94697.56;4985587;28;20091;-87
2023/08/26 09:35:13;;;;;;;13.43;7.65;;;;;;;34.64;50.33;94687.97;4985404;28;20164;-88
2023/08/26 09:37:40;;;;;;;6.93;6.35;;;;;;;34.28;47.66;94689.28;5004553;28;20414;-86
2023/08/26 09:40:07;;;;;;;7.05;6.45;;;;;;;34.64;46.55;94691.44;4970133;28;20038;-87
2023/08/26 09:42:34;;;;;;;7.95;7.35;;;;;;;35.01;47.49;94680.81;5002281;28;20061;-86
2023/08/26 09:44:59;;;;;;;7.57;6.85;;;;;;;35.24;47.74;94682.84;5003255;28;20030;-87
2023/08/26 09:47:29;;;;;;;8.98;7.22;;;;;;;35.24;48.61;94679.38;5003131;28;20029;-85
2023/08/26 09:49:54;;;;;;;7.45;6.53;;;;;;;34.93;47.72;94680.56;5003419;28;20026;-85
2023/08/26 09:52:20;;;;;;;7.53;6.82;;;;;;;34.77;48.24;94671.56;5003200;28;20580;-88
2023/08/26 09:54:46;;;;;;;8.10;7.30;;;;;;;35.04;48.07;94678.25;5004680;28;20022;-85
2023/08/26 09:57:11;;;;;;;7.40;6.70;;;;;;;34.86;47.79;94668.78;4985431;28;20440;-87
2023/08/26 09:59:37;;;;;;;7.53;6.40;;;;;;;34.65;45.38;94665.28;5003353;28;20030;-88
2023/08/26 10:02:14;;;;;;;6.88;6.38;;;;;;;35.21;46.80;94672.75;5004654;28;20514;-91
2023/08/26 10:04:40;;;;;;;5.85;5.45;;;;;;;35.18;45.95;94659.16;5019793;28;20064;-91
2023/08/26 10:07:05;;;;;;;6.43;5.82;;;;;;;34.57;43.67;94663.44;4988475;28;20622;-89
2023/08/26 10:09:52;;;;;;;6.15;5.57;;;;;;;33.97;44.42;94659.25;4986377;28;20054;-88
2023/08/26 10:12:28;;;;;;;7.20;6.57;;;;;;;33.89;45.16;94652.78;4969860;28;20026;-90
2023/08/26 10:14:54;;;;;;;7.32;6.72;;;;;;;34.44;45.49;94651.81;4987120;28;20092;-93
2023/08/26 10:17:21;;;;;;;6.78;6.28;;;;;;;34.24;42.41;94652.59;4988346;28;20037;-91
2023/08/26 10:19:47;;;;;;;9.50;5.75;;;;;;;34.75;43.62;94649.53;4986265;28;20033;-89
2023/08/26 10:22:13;;;;;;;8.40;6.38;;;;;;;34.85;42.90;94646.44;4984660;28;20034;-89
2023/08/26 10:24:39;;;;;;;5.97;5.57;;;;;;;34.87;44.56;94644.19;4999800;28;20092;-83
2023/08/26 10:27:07;;;;;;;7.43;6.75;;;;;;;33.91;45.04;94644.38;4995750;28;20034;-88
2023/08/26 10:29:37;;;;;;;7.53;6.80;;;;;;;33.53;46.53;94647.06;4971048;28;20043;-86
2023/08/26 10:32:19;;;;;;;7.38;6.68;;;;;;;33.50;48.07;94639.66;4982557;28;20057;-84
2023/08/26 10:34:55;;;;;;;7.68;7.10;;;;;;;33.72;48.59;94641.31;4995500;28;20536;-86
2023/08/26 10:37:28;;;;;;;7.60;7.07;;;;;;;34.05;44.95;94641.47;4990987;28;20026;-89
2023/08/26 10:39:55;;;;;;;7.55;7.00;;;;;;;33.72;45.79;94644.00;4984308;28;20026;-87
2023/08/26 10:42:21;;;;;;;7.65;6.93;;;;;;;33.90;45.99;94640.91;5001311;28;20076;-86
2023/08/26 10:44:50;;;;;;;7.35;6.63;;;;;;;34.31;42.75;94639.41;4983749;28;20034;-91
2023/08/26 10:47:35;;;;;;;6.25;5.85;;;;;;;34.50;41.95;94642.44;4982388;28;20511;-89
2023/08/26 10:50:36;;;;;;;6.50;5.65;;;;;;;34.36;40.46;94636.50;5000774;28;20484;-91
2023/08/26 10:53:15;;;;;;;6.35;5.88;;;;;;;34.62;41.01;94634.44;4891018;29;20046;-86
2023/08/26 10:55:41;;;;;;;6.53;5.72;;;;;;;34.10;40.13;94633.22;4969858;28;20704;-88
2023/08/26 10:58:08;;;;;;;5.47;4.97;;;;;;;34.18;39.50;94630.47;5002123;28;20427;-85
2023/08/26 11:00:34;;;;;;;6.25;5.78;;;;;;;34.04;40.45;94624.53;5001712;28;20952;-88
2023/08/26 11:03:01;;;;;;;5.90;5.50;;;;;;;33.61;41.50;94619.41;4984734;28;20044;-87
2023/08/26 11:05:27;;;;;;;7.05;5.40;;;;;;;33.51;42.66;94616.25;5002181;28;20163;-85
2023/08/26 11:07:52;;;;;;;6.78;6.32;;;;;;;33.27;44.36;94620.28;5001608;28;20674;-88
2023/08/26 11:10:28;;;;;;;6.75;6.15;;;;;;;33.16;42.41;94615.59;4984552;28;20041;-87
2023/08/26 11:12:53;;;;;;;6.75;6.22;;;;;;;33.24;43.51;94612.09;4971602;28;20582;-85
2023/08/26 11:15:19;;;;;;;7.10;6.00;;;;;;;33.87;41.39;94611.19;4997086;28;20018;-86
2023/08/26 11:17:44;;;;;;;6.32;5.72;;;;;;;34.09;39.04;94607.41;5000546;28;20117;-87
2023/08/26 11:20:10;;;;;;;6.78;5.75;;;;;;;34.80;41.36;94608.94;5002014;28;20519;-85
2023/08/26 11:22:35;;;;;;;7.10;5.72;;;;;;;34.99;40.47;94607.66;5001869;28;20858;-86
2023/08/26 11:25:01;;;;;;;6.47;5.47;;;;;;;34.46;39.87;94600.34;5003186;28;20038;-89
2023/08/26 11:27:26;;;;;;;6.20;5.78;;;;;;;34.44;41.17;94608.75;5000363;28;20040;-93